Latest Coastal Weather Observations for Sydney Airport

IDN60701

Issued at 5:41 pm EDT Thursday 2 April 2015 (issued every 10 minutes, with the page automatically refreshed every 10 minutes)

About coastal observations | Map of coastal stations | Coastal observations for NSW | Marine services | Other Formats
Station Details ID: 066037 Name: SYDNEY AIRPORT AMO Lat: -33.95 Lon: 151.17 Height: 6.0 m
Data from the previous 72 hours. | See also: Recent months at Sydney Airport
Date/Time
EDT
Temp

°C
Wind Pressure Rain
since 9am
mm
Weather Cloud Vis
km
Sea
Height
m
Swell
Dir
 
Speed
knots
Gust
knots
hPa Trend Height
m
Period
s
Dir
02/05:30pm 26.4 NE 10 13 1016.1 - 0.0 - Mostly clear 10 - - - -
02/05:00pm 26.2 NE 13 15 1015.7 - 0.0 - - 10 - - - -
02/04:30pm 29.2 NE 12 14 1015.4 - 0.0 - - 10 - - - -
02/04:00pm 29.4 NNE 9 13 1015.5 - 0.0 - - 10 - - - -
02/03:30pm 30.5 NW 4 6 1015.8 - 0.0 - - 10 - - - -
02/03:00pm 30.1 NW 5 7 1016.0 F 0.0 Fine Mostly cloudy 25 - - - -
02/02:30pm 29.8 NW 5 6 1016.3 - 0.0 - - 10 - - - -
02/02:00pm 28.6 NW 6 8 1016.5 - 0.0 - - 10 - - - -
02/01:30pm 28.1 NW 7 9 1016.8 - 0.0 - - 10 - - - -
02/01:00pm 28.6 NW 5 8 1017.2 - 0.0 - - 10 - - - -
02/12:30pm 27.7 NW 6 8 1017.7 - 0.0 - Mostly clear 10 - - - -
02/12:00pm 26.9 NW 7 10 1017.9 F 0.0 Fine Mostly cloudy 25 - - - -
02/11:30am 26.1 NW 7 10 1018.3 - 0.0 - Mostly clear 10 - - - -
02/11:00am 25.5 NW 7 9 1018.4 - 0.0 - - 10 - - - -
02/10:00am 22.8 NW 7 9 1018.7 - 0.0 - - 10 - - - -
02/09:30am 21.8 NW 6 8 1018.8 - 0.0 - - 10 - - - -
02/09:00am 21.3 NNW 7 8 1018.8 R 0.0 Fine Mostly cloudy 22 - - - -
02/08:30am 20.9 NNW 6 8 1018.5 - 0.0 - - 10 - - - -
02/08:00am 20.6 N 7 8 1018.1 - 0.0 - - 10 - - - -
02/07:30am 20.5 NW 6 8 1018.0 - 0.0 - - 10 - - - -
02/07:00am 19.9 NNW 6 6 1017.8 - 0.0 - - 10 - - - -
02/06:30am 20.6 NNW 8 12 1017.6 - 0.0 - - 10 - - - -
02/06:00am 20.0 NNW 5 5 1017.3 F 0.0 Fine Partly cloudy 25 - - - -
02/05:30am 19.5 NW 4 5 1017.2 - 0.0 - - 10 - - - -
02/05:00am 19.5 NW 5 6 1017.2 - 0.0 - - 10 - - - -
02/04:30am 19.8 NNE 4 5 1017.3 - 0.0 - - 10 - - - -
02/04:00am 19.8 WNW 4 5 1017.5 - 0.0 - - 10 - - - -
02/03:30am 19.6 N 3 4 1017.7 - 0.0 - - 10 - - - -
02/03:00am 19.6 NNE 5 5 1018.0 F 0.0 Fine Partly cloudy 20 - - - -
02/02:30am 20.2 NNE 4 4 1018.4 - 0.0 - - 10 - - - -
02/02:00am 20.9 NNE 6 7 1018.9 - 0.0 - - 10 - - - -
02/01:30am 20.9 N 5 5 1019.1 - 0.0 - - 10 - - - -
02/01:00am 21.5 N 5 6 1019.4 - 0.0 - - 10 - - - -
02/12:30am 21.1 N 5 6 1019.8 - 0.0 - - 10 - - - -
 
Date/Time
EDT
Temp

°C
Wind Pressure Rain
since 9am
mm
Weather Cloud Vis
km
Sea
Height
m
Swell
Dir
 
Speed
knots
Gust
knots
hPa Trend Height
m
Period
s
Dir
01/11:30pm 22.5 N 5 6 1020.1 - 0.0 - - 10 - - - -
01/11:00pm 23.2 NNE 9 11 1020.1 - 0.0 - - 10 - - - -
01/10:30pm 23.4 NNE 11 14 1020.3 - 0.0 - - 10 - - - -
01/10:00pm 23.9 NNE 13 17 1020.3 - 0.0 - - 10 - - - -
01/09:30pm 23.7 NNE 13 17 1020.2 - 0.0 - - 10 - - - -
01/09:00pm 23.8 NNE 14 19 1020.0 F 0.0 Fine Partly cloudy 25 - - - -
01/08:30pm 23.8 NNE 14 19 1020.0 - 0.0 - - 10 - - - -
01/08:00pm 23.9 NNE 13 15 1019.7 - 0.0 - - 10 - - - -
01/07:30pm 24.0 NE 13 16 1019.8 - 0.0 - - 10 - - - -
01/07:00pm 24.2 NNE 14 17 1019.8 - 0.0 - - 10 - - - -
01/06:30pm 24.5 NNE 14 18 1019.7 - 0.0 - Mostly clear 10 - - - -
01/06:00pm 25.0 NNE 16 20 1019.8 F 0.0 Fine Mostly clear 30 - - - -
01/05:30pm 25.7 NNE 12 15 1019.7 - 0.0 - Mostly clear 10 - - - -
01/05:00pm 25.9 NNE 15 19 1019.5 - 0.0 - Mostly clear 10 - - - -
01/04:30pm 26.3 NNE 15 17 1019.7 - 0.0 - Mostly clear 10 - - - -
01/04:00pm 26.8 NE 11 14 1019.9 - 0.0 - Mostly clear 10 - - - -
01/03:30pm 25.1 NNE 11 15 1020.3 - 0.0 - Mostly clear 10 - - - -
01/03:00pm 24.3 NE 11 15 1020.8 F 0.0 Distant precip. Partly cloudy 30 - - - -
01/02:30pm 26.1 NE 13 18 1021.2 - 0.0 - Mostly clear 10 - - - -
01/02:00pm 26.1 NNE 13 17 1021.5 - 0.0 - Mostly clear 10 - - - -
01/01:30pm 25.1 NE 14 19 1022.1 - 0.0 Showers Mostly clear 10 - - - -
01/01:00pm 25.8 NNE 14 19 1022.6 - 0.0 - Mostly clear 10 - - - -
01/12:30pm 24.8 NNE 9 14 1023.4 - 0.0 Showers Mostly clear 10 - - - -
01/12:00pm 25.1 NNE 7 10 1023.8 F 0.0 Fine Mostly cloudy 30 - - - -
01/11:30am 24.0 N 8 11 1024.2 - 0.0 - Mostly clear 10 - - - -
01/11:00am 24.4 N 9 16 1024.3 - 0.0 - Mostly clear 10 - - - -
01/10:30am 23.5 N 6 7 1024.6 - 0.0 - Mostly clear 10 - - - -
01/10:00am 23.1 WNW 5 7 1024.9 - 0.0 - Mostly clear 10 - - - -
01/09:30am 22.3 NW 5 7 1025.1 - 0.0 - Mostly clear 10 - - - -
01/09:00am 20.9 NW 5 7 1025.0 F 21.6 Distant fog Mostly clear 25 - - - -
01/08:30am 20.4 N 3 4 1024.7 - 21.6 - Mostly clear 10 - - - -
01/08:00am 19.4 WNW 4 5 1024.4 - 21.6 - Mostly clear 10 - - - -
01/07:30am 18.4 NW 5 6 1024.2 - 21.6 - Mostly clear 10 - - - -
01/07:00am 19.2 NW 4 6 1024.3 - 21.6 - Mostly clear 10 - - - -
01/06:30am 19.1 NW 5 7 1024.1 - 21.6 - Mostly clear 10 - - - -
01/06:21am 18.4 W 5 7 1024.0 - 21.6 - Mostly clear 10 - - - -
01/06:00am 18.5 NW 5 7 1024.0 F 21.6 Rain Mostly cloudy 15 - - - -
01/05:30am 18.0 SSE 4 5 1023.9 - 21.2 - Mostly clear 10 - - - -
01/05:00am 17.7 SW 5 7 1023.6 - 21.2 - Mostly clear 10 - - - -
01/04:30am 17.9 WSW 4 6 1023.7 - 21.2 - Mostly clear 10 - - - -
01/04:00am 18.1 WNW 6 7 1023.9 - 21.2 - Mostly clear 10 - - - -
01/03:30am 18.4 NW 5 6 1024.1 - 21.2 - Mostly clear 10 - - - -
01/03:00am 18.6 NW 6 8 1024.3 F 20.8 Showers Mostly cloudy 9 - - - -
01/02:30am 18.9 SSW 5 7 1024.5 - 19.6 - Mostly clear 10 - - - -
01/02:00am 19.0 SSW 6 7 1024.6 - 19.6 - Partly cloudy 10 - - - -
01/01:30am 18.3 SW 5 6 1025.0 - 19.6 - Mostly clear 10 - - - -
01/01:00am 18.4 WSW 5 6 1025.2 - 19.6 - - 10 - - - -
01/12:30am 18.6 WSW 6 6 1025.5 - 19.6 - - 10 - - - -
01/12:00am 18.9 SW 5 5 1025.4 F 19.6 Fine Mostly clear 30 - - - -
 
Date/Time
EDT
Temp

°C
Wind Pressure Rain
since 9am
mm
Weather Cloud Vis
km
Sea
Height
m
Swell
Dir
 
Speed
knots
Gust
knots
hPa Trend Height
m
Period
s
Dir
31/11:30pm 19.5 SW 5 5 1025.6 - 19.6 - Mostly clear 10 - - - -
31/11:00pm 20.4 CALM 0 5 1025.9 - 19.6 - Mostly clear 10 - - - -
31/10:30pm 20.7 CALM 0 0 1026.1 - 19.6 - Mostly clear 10 - - - -
31/10:00pm 20.7 N 2 4 1026.1 - 19.6 - Mostly clear 10 - - - -
31/09:30pm 20.4 ENE 3 4 1026.0 - 19.6 - Mostly clear 10 - - - -
31/09:00pm 20.5 E 5 6 1025.9 F 19.6 Fine Mostly clear 30 - - - -
31/08:30pm 20.3 E 6 7 1025.7 - 19.6 - Mostly clear 10 - - - -
31/08:00pm 20.4 ESE 6 7 1025.5 - 19.6 - Mostly clear 10 - - - -
31/07:30pm 20.8 ESE 7 9 1025.2 - 19.6 - Mostly clear 10 - - - -
31/07:00pm 21.0 SE 7 9 1025.0 - 19.6 - Mostly clear 10 - - - -
31/06:30pm 21.4 SE 9 11 1025.1 - 19.6 - Mostly clear 10 - - - -
31/06:00pm 22.2 SE 8 10 1024.9 R 19.6 Fine Mostly clear 30 - - - -
31/05:30pm 22.4 SE 9 11 1024.7 - 19.6 - Mostly clear 10 - - - -
31/05:00pm 22.9 SE 10 13 1024.7 - 19.6 - Mostly clear 10 - - - -
31/04:30pm 23.4 SE 10 12 1024.7 - 19.6 - Mostly clear 10 - - - -
31/04:00pm 22.5 SSE 10 12 1024.8 - 19.6 - Mostly clear 10 - - - -
31/03:30pm 21.9 S 8 10 1025.0 - 19.6 - Mostly clear 10 - - - -
31/03:00pm 21.1 S 7 9 1025.0 S 19.6 Distant precip. Mostly cloudy 25 - - - -
31/02:30pm 20.4 SSW 6 7 1025.2 - 19.6 - Mostly clear 10 - - - -
31/02:00pm 20.6 SW 5 7 1025.5 - 19.6 - Mostly clear 10 - - - -
31/01:30pm 20.3 W 5 8 1025.7 - 19.6 - Mostly clear 10 - - - -
31/01:10pm 19.7 NNW 4 6 1026.0 - 19.6 Rain Mostly clear 8 - - - -
31/01:00pm 19.8 NE 7 9 1026.2 - 18.8 - Mostly clear 5 - - - -
31/12:51pm 20.1 NE 6 9 1026.4 - 18.4 Thunder Mostly clear 5 - - - -
31/12:30pm 20.4 ESE 5 6 1026.4 - 18.4 Thunder Mostly clear 7 - - - -
31/12:19pm 20.3 S 5 7 1026.6 - 18.4 Thunder Mostly clear 8 - - - -
31/12:07pm 19.6 S 6 10 1026.7 - 18.4 Thunderstorm Mostly clear 5 - - - -
31/12:00pm 19.3 SSW 5 11 1026.7 R 18.4 Thunderstorm Mostly cloudy 20 - - - -
31/11:52am 18.8 SE 6 12 1026.8 - 18.4 Thunderstorm Mostly clear 4 - - - -
31/11:47am 19.1 NE 6 12 1026.8 - 18.4 Thunderstorm Mostly clear 6 - - - -
31/11:39am 18.9 ENE 10 16 1026.8 - 14.6 Thunderstorm Mostly clear 3 - - - -
31/11:32am 18.9 SSE 13 19 1027.1 - 2.8 Thunderstorm Mostly clear 1 - - - -
31/11:30am 20.0 S 14 19 1027.1 - 0.8 Showers Mostly clear 1 - - - -
31/11:28am 20.9 S 15 19 1026.9 - 0.6 Showers Mostly clear 2 - - - -
31/11:25am 20.7 S 16 19 1026.5 - 0.6 Showers Mostly clear 4 - - - -
31/11:22am 20.7 S 15 20 1026.4 - 0.2 Showers Mostly clear 6 - - - -
31/11:00am 21.3 S 16 19 1026.5 - 0.0 - Mostly clear 10 - - - -
31/10:30am 21.2 S 13 16 1026.7 - 0.0 Showers Mostly clear 10 - - - -
31/10:00am 21.3 SSE 12 16 1026.8 - 0.0 - Mostly clear 10 - - - -
31/09:30am 21.3 SSE 9 13 1026.5 - 0.0 - Mostly clear 10 - - - -
31/09:00am 21.7 SSE 11 14 1026.1 R 10.4 Distant precip. Mostly cloudy 25 - - - -
31/08:30am 21.0 SSE 10 13 1025.7 - 10.4 - Mostly clear 10 - - - -
31/08:00am 20.8 SE 9 10 1025.5 - 10.4 - Mostly clear 10 - - - -
31/07:30am 20.4 SSE 7 9 1025.3 - 10.4 - Mostly clear 10 - - - -
31/07:00am 20.0 S 6 8 1025.0 - 10.4 - Mostly clear 10 - - - -
31/06:30am 19.0 CALM 0 0 1024.8 - 10.2 Rain Mostly clear 10 - - - -
31/06:00am 18.9 SSW 3 4 1024.6 F 10.2 Rain Cloudy 20 - - - -
31/05:30am 18.8 W 2 3 1024.3 - 10.2 - Mostly clear 10 - - - -
31/05:00am 18.9 WNW 3 4 1024.2 - 10.2 - Mostly clear 10 - - - -
31/04:30am 19.0 W 4 5 1024.4 - 10.2 - Mostly clear 10 - - - -
31/04:00am 18.8 WSW 7 9 1024.5 - 10.2 - Mostly clear 10 - - - -
31/03:30am 18.9 WNW 5 5 1024.7 - 10.2 - Mostly clear 10 - - - -
31/03:00am 19.2 NNW 3 4 1024.9 R 10.2 Distant precip. Partly cloudy 30 - - - -
31/02:30am 19.4 N 3 4 1025.0 - 10.2 - Mostly clear 10 - - - -
31/02:00am 19.4 CALM 0 2 1025.3 - 10.2 - Mostly clear 10 - - - -
31/01:30am 19.7 N 6 6 1025.4 - 10.2 - Mostly clear 10 - - - -
31/01:00am 19.8 CALM 0 0 1025.5 - 10.2 - Mostly clear 10 - - - -
31/12:30am 19.2 N 3 4 1025.2 - 10.2 - Mostly clear 10 - - - -
31/12:00am 19.8 NNE 7 9 1025.3 F 10.2 Showers Mostly cloudy 20 - - - -
 
Date/Time
EDT
Temp

°C
Wind Pressure Rain
since 9am
mm
Weather Cloud Vis
km
Sea
Height
m
Swell
Dir
 
Speed
knots
Gust
knots
hPa Trend Height
m
Period
s
Dir
30/11:30pm 21.3 ESE 7 9 1025.5 - 10.0 Drizzle Mostly clear 10 - - - -
30/11:00pm 20.7 SE 7 8 1025.3 - 10.0 - Mostly clear 10 - - - -
30/10:30pm 21.1 SE 5 6 1025.2 - 10.0 - Partly cloudy 10 - - - -
30/10:00pm 21.2 SSE 5 6 1025.1 - 10.0 - Mostly clear 10 - - - -
30/09:30pm 21.2 SE 5 5 1025.1 - 10.0 - Mostly clear 10 - - - -
30/09:00pm 21.2 ESE 5 6 1025.1 R 10.0 Distant precip. Mostly cloudy 30 - - - -
30/08:30pm 21.3 ESE 5 5 1025.0 - 10.0 - Mostly clear 10 - - - -
30/08:00pm 21.2 ESE 4 5 1024.6 - 10.0 - Mostly clear 10 - - - -
30/07:30pm 21.4 ENE 6 8 1024.2 - 10.0 - Mostly clear 10 - - - -
30/07:00pm 21.9 E 5 7 1024.0 - 10.0 - Mostly clear 10 - - - -
30/06:30pm 22.0 ENE 6 7 1023.8 - 10.0 - Mostly clear 10 - - - -
30/06:00pm 22.3 ENE 8 9 1023.3 R 10.0 Distant precip. Mostly cloudy 30 - - - -

Other Formats:

Comma delimited format used in spreadsheet applications
http://www.bom.gov.au/fwo/IDN60701/IDN60701.94767.axf

JavaScript Object Notation format (JSON) in row-major order
http://www.bom.gov.au/fwo/IDN60701/IDN60701.94767.json